createdAt,value
2023-03-17T00:01:38.855Z,7.17
2023-03-17T00:04:10.850Z,7.25
2023-03-17T00:06:41.532Z,7.30
2023-03-17T00:09:15.570Z,7.38
2023-03-17T00:11:46.569Z,7.28
2023-03-17T00:14:20.207Z,7.27
2023-03-17T00:16:53.539Z,7.28
2023-03-17T00:19:32.723Z,7.25
2023-03-17T00:22:06.177Z,7.21
2023-03-17T00:24:36.685Z,7.30
2023-03-17T00:27:15.613Z,7.28
2023-03-17T00:29:48.938Z,7.22
2023-03-17T00:32:22.624Z,7.25
2023-03-17T00:34:55.306Z,7.19
2023-03-17T00:37:25.747Z,7.16
2023-03-17T00:39:56.384Z,7.15
2023-03-17T00:42:29.585Z,7.15
2023-03-17T00:45:02.671Z,7.10
2023-03-17T00:47:33.009Z,7.05
2023-03-17T00:50:03.300Z,7.02
2023-03-17T00:52:34.195Z,6.94
2023-03-17T00:55:04.632Z,6.98
2023-03-17T00:57:35.277Z,7.01
2023-03-17T01:00:21.783Z,7.05
2023-03-17T01:02:54.857Z,7.07
2023-03-17T01:05:27.765Z,6.98
2023-03-17T01:08:00.185Z,6.85
2023-03-17T01:10:32.806Z,6.93
2023-03-17T01:13:03.476Z,6.92
2023-03-17T01:15:37.771Z,6.82
2023-03-17T01:18:09.013Z,6.80
2023-03-17T01:20:39.121Z,6.91
2023-03-17T01:23:09.761Z,6.94
2023-03-17T01:25:42.808Z,7.01
2023-03-17T01:28:18.074Z,6.93
2023-03-17T01:30:52.548Z,6.94
2023-03-17T01:33:22.854Z,7.02
2023-03-17T01:35:54.120Z,7.01
2023-03-17T01:38:24.698Z,6.86
2023-03-17T01:40:56.856Z,6.89
2023-03-17T01:43:30.896Z,6.94
2023-03-17T01:46:32.708Z,6.98
2023-03-17T01:49:13.362Z,6.89
2023-03-17T01:51:53.089Z,6.89
2023-03-17T01:54:29.711Z,6.91
2023-03-17T01:57:04.924Z,6.91
2023-03-17T01:59:41.226Z,6.99
2023-03-17T02:02:20.106Z,7.07
2023-03-17T02:04:50.621Z,6.98
2023-03-17T02:07:22.400Z,6.96
2023-03-17T02:09:53.744Z,7.08
2023-03-17T02:12:25.424Z,7.02
2023-03-17T02:14:56.150Z,6.90
2023-03-17T02:17:31.172Z,6.88
2023-03-17T02:20:32.833Z,6.89
2023-03-17T02:23:07.079Z,6.98
2023-03-17T02:25:39.977Z,6.92
2023-03-17T02:28:14.283Z,6.99
2023-03-17T02:30:45.876Z,7.02
2023-03-17T02:33:19.085Z,7.03
2023-03-17T02:35:51.244Z,7.01
2023-03-17T02:38:24.182Z,6.95
2023-03-17T02:40:54.769Z,7.02
2023-03-17T02:43:25.675Z,7.08
2023-03-17T02:45:59.935Z,7.07
2023-03-17T02:48:30.700Z,7.04
2023-03-17T02:51:01.093Z,6.98
2023-03-17T02:53:34.424Z,6.90
2023-03-17T02:56:05.080Z,6.80
2023-03-17T02:58:35.816Z,6.82
2023-03-17T03:01:06.432Z,6.81
2023-03-17T03:03:37.240Z,6.66
2023-03-17T03:06:08.800Z,6.59
2023-03-17T03:08:41.757Z,6.56
2023-03-17T03:11:12.253Z,6.50
2023-03-17T03:13:42.615Z,6.58
2023-03-17T03:16:13.163Z,6.56
2023-03-17T03:18:43.983Z,6.42
2023-03-17T03:21:15.531Z,6.45
2023-03-17T03:23:48.631Z,6.43
2023-03-17T03:26:19.439Z,6.49
2023-03-17T03:28:49.899Z,6.54
2023-03-17T03:31:20.469Z,6.60
2023-03-17T03:33:50.906Z,6.59
2023-03-17T03:36:23.551Z,6.50
2023-03-17T03:38:56.663Z,6.57
2023-03-17T03:41:27.390Z,6.61
2023-03-17T03:43:57.710Z,6.63
2023-03-17T03:46:28.651Z,6.68
2023-03-17T03:48:59.070Z,6.68
2023-03-17T03:51:29.489Z,6.65
2023-03-17T03:54:02.454Z,6.62
2023-03-17T03:56:32.855Z,6.67
2023-03-17T03:59:03.169Z,6.67
2023-03-17T04:01:33.555Z,6.67
2023-03-17T04:04:03.812Z,6.70
2023-03-17T04:06:34.151Z,6.64
2023-03-17T04:09:10.271Z,6.60
2023-03-17T04:11:40.503Z,6.63
2023-03-17T04:14:10.772Z,6.64
2023-03-17T04:16:43.302Z,6.62
2023-03-17T04:19:14.034Z,6.59
2023-03-17T04:21:44.469Z,6.60
2023-03-17T04:24:18.871Z,6.60
2023-03-17T04:26:49.172Z,6.58
2023-03-17T04:29:20.209Z,6.62
2023-03-17T04:31:50.936Z,6.61
2023-03-17T04:34:23.147Z,6.56
2023-03-17T04:36:54.127Z,6.67
2023-03-17T04:39:27.668Z,6.65
2023-03-17T04:41:58.065Z,6.63
2023-03-17T04:44:28.439Z,6.63
2023-03-17T04:46:58.751Z,6.67
2023-03-17T04:49:29.083Z,6.66
2023-03-17T04:51:59.498Z,6.63
2023-03-17T04:54:32.475Z,6.53
2023-03-17T04:57:02.882Z,6.52
2023-03-17T04:59:33.220Z,6.44
2023-03-17T05:02:03.612Z,6.44
2023-03-17T05:04:34.053Z,6.40
2023-03-17T05:07:04.850Z,6.50
2023-03-17T05:09:40.361Z,6.58
2023-03-17T05:12:12.787Z,6.50
2023-03-17T05:14:43.131Z,6.57
2023-03-17T05:17:13.993Z,6.50
2023-03-17T05:19:44.956Z,6.57
2023-03-17T05:22:15.694Z,6.54
2023-03-17T05:24:48.839Z,6.56
2023-03-17T05:27:19.145Z,6.51
2023-03-17T05:29:49.901Z,6.56
2023-03-17T05:32:21.127Z,6.55
2023-03-17T05:34:52.134Z,6.56
2023-03-17T05:37:22.760Z,6.56
2023-03-17T05:39:55.812Z,6.51
2023-03-17T05:42:26.412Z,6.55
2023-03-17T05:44:56.774Z,6.58
2023-03-17T05:47:27.027Z,6.52
2023-03-17T05:49:57.336Z,6.53
2023-03-17T05:52:28.198Z,6.48
2023-03-17T05:55:01.253Z,6.43
2023-03-17T05:57:31.608Z,6.53
2023-03-17T06:00:02.576Z,6.59
2023-03-17T06:02:35.523Z,6.63
2023-03-17T06:05:06.387Z,6.67
2023-03-17T06:07:50.938Z,6.77
2023-03-17T06:10:27.265Z,6.98
2023-03-17T06:12:59.035Z,7.13
2023-03-17T06:15:30.107Z,7.27
2023-03-17T06:18:00.360Z,7.34
2023-03-17T06:20:31.658Z,7.26
2023-03-17T06:23:05.312Z,7.33
2023-03-17T06:25:39.438Z,7.42
2023-03-17T06:28:10.311Z,7.56
2023-03-17T06:30:41.068Z,7.60
2023-03-17T06:33:12.042Z,7.61
2023-03-17T06:35:42.605Z,7.68
2023-03-17T06:38:13.586Z,7.77
2023-03-17T06:40:46.760Z,7.79
2023-03-17T06:43:17.630Z,7.80
2023-03-17T06:45:47.991Z,8.04
2023-03-17T06:48:18.281Z,8.10
2023-03-17T06:50:50.320Z,8.06
2023-03-17T06:53:20.924Z,7.98
2023-03-17T06:55:54.063Z,7.91
2023-03-17T06:58:24.995Z,7.91
2023-03-17T07:00:56.219Z,8.07
2023-03-17T07:03:26.695Z,8.27
2023-03-17T07:05:57.748Z,8.36
2023-03-17T07:08:30.809Z,8.48
2023-03-17T07:11:04.718Z,8.61
2023-03-17T07:13:37.350Z,8.93
2023-03-17T07:16:09.571Z,9.08
2023-03-17T07:18:39.911Z,9.38
2023-03-17T07:21:10.391Z,9.67
2023-03-17T07:23:40.778Z,9.79
2023-03-17T07:26:13.990Z,9.95
2023-03-17T07:28:44.771Z,10.22
2023-03-17T07:31:15.211Z,10.39
2023-03-17T07:33:45.561Z,10.70
2023-03-17T07:36:15.979Z,10.99
2023-03-17T07:38:46.767Z,11.51
2023-03-17T07:41:19.805Z,11.90
2023-03-17T07:43:50.190Z,12.65
2023-03-17T07:46:20.975Z,13.28
2023-03-17T07:48:54.366Z,13.98
2023-03-17T07:51:28.175Z,14.55
2023-03-17T07:54:03.996Z,15.21
2023-03-17T07:56:37.109Z,16.06
2023-03-17T07:59:07.755Z,16.22
2023-03-17T08:01:38.728Z,15.22
2023-03-17T08:04:10.925Z,14.87
2023-03-17T08:06:41.893Z,14.78
2023-03-17T08:09:12.866Z,14.25
2023-03-17T08:11:46.053Z,13.61
2023-03-17T08:14:16.767Z,13.31
2023-03-17T08:16:47.612Z,13.47
2023-03-17T08:19:18.074Z,13.48
2023-03-17T08:21:48.459Z,13.17
2023-03-17T08:24:18.869Z,13.12
2023-03-17T08:26:54.216Z,13.38
2023-03-17T08:29:24.890Z,14.42
2023-03-17T08:31:55.394Z,15.63
2023-03-17T08:34:26.434Z,17.11
2023-03-17T08:36:56.838Z,18.47
2023-03-17T08:39:27.360Z,19.70
2023-03-17T08:42:00.381Z,20.31
2023-03-17T08:44:30.764Z,21.00
2023-03-17T08:47:01.682Z,22.14
2023-03-17T08:49:34.842Z,22.17
2023-03-17T08:52:05.578Z,22.72
2023-03-17T08:54:37.556Z,22.00
2023-03-17T08:57:10.609Z,22.79
2023-03-17T08:59:41.357Z,22.59
2023-03-17T09:02:15.049Z,22.96
2023-03-17T09:04:45.632Z,22.86
2023-03-17T09:07:17.176Z,23.11
2023-03-17T09:09:47.852Z,23.66
2023-03-17T09:12:20.878Z,23.55
2023-03-17T09:14:51.713Z,23.79
2023-03-17T09:17:22.052Z,24.01
2023-03-17T09:19:52.720Z,24.19
2023-03-17T09:22:23.393Z,24.49
2023-03-17T09:24:54.087Z,24.56
2023-03-17T09:27:27.644Z,24.77
2023-03-17T09:29:58.080Z,24.82
2023-03-17T09:32:28.715Z,25.23
2023-03-17T09:35:01.111Z,25.54
2023-03-17T09:37:31.471Z,25.64
2023-03-17T09:40:01.548Z,25.43
2023-03-17T09:42:50.600Z,24.85
2023-03-17T09:45:34.689Z,24.64
2023-03-17T09:48:51.042Z,24.94
2023-03-17T09:51:22.543Z,25.28
2023-03-17T09:53:59.987Z,25.07
2023-03-17T09:56:32.495Z,25.23
2023-03-17T09:59:10.801Z,25.72
2023-03-17T10:01:45.438Z,25.90
2023-03-17T10:04:18.919Z,25.85
2023-03-17T10:06:50.363Z,25.81
2023-03-17T10:09:28.007Z,25.34
2023-03-17T10:12:11.433Z,25.19
2023-03-17T10:14:54.714Z,25.11
2023-03-17T10:17:29.196Z,25.17
2023-03-17T10:20:05.100Z,25.20
2023-03-17T10:22:43.096Z,25.33
2023-03-17T10:25:19.162Z,24.62
2023-03-17T10:27:56.048Z,24.18
2023-03-17T10:30:30.112Z,24.90
2023-03-17T10:33:07.087Z,25.47
2023-03-17T10:35:39.662Z,25.22
2023-03-17T10:38:19.607Z,25.48
2023-03-17T10:40:58.953Z,25.35
2023-03-17T10:43:35.647Z,25.35
2023-03-17T10:46:17.229Z,25.27
2023-03-17T10:48:55.374Z,25.16
2023-03-17T10:51:37.052Z,24.52
2023-03-17T10:54:13.534Z,25.03
2023-03-17T10:56:45.463Z,25.16
2023-03-17T11:02:04.535Z,25.92
2023-03-17T11:04:38.744Z,26.54
2023-03-17T11:07:13.008Z,26.18
2023-03-17T11:09:43.317Z,26.04
2023-03-17T11:12:29.504Z,25.90
2023-03-17T11:15:05.006Z,25.86
2023-03-17T11:17:46.829Z,25.49
2023-03-17T11:20:45.470Z,25.48
2023-03-17T11:23:29.180Z,25.84
2023-03-17T11:26:14.849Z,26.63
2023-03-17T11:28:53.540Z,27.29
2023-03-17T11:31:33.667Z,27.52
2023-03-17T11:34:12.124Z,28.08
2023-03-17T11:36:54.514Z,28.72
2023-03-17T11:39:31.427Z,29.42
2023-03-17T11:42:11.588Z,30.13
2023-03-17T11:45:13.014Z,30.49
2023-03-17T11:48:09.841Z,30.36
2023-03-17T11:50:55.172Z,30.37
2023-03-17T11:53:47.976Z,29.77
2023-03-17T11:56:24.201Z,29.24
2023-03-17T11:59:03.402Z,28.58
2023-03-17T12:01:51.362Z,27.42
2023-03-17T12:04:30.856Z,27.67
2023-03-17T12:07:14.049Z,27.95
2023-03-17T12:09:49.316Z,27.94
2023-03-17T12:12:29.520Z,27.05
2023-03-17T12:15:02.220Z,27.00
2023-03-17T12:17:39.625Z,27.36
2023-03-17T12:20:19.080Z,26.87
2023-03-17T12:22:59.068Z,26.98
2023-03-17T12:25:35.598Z,26.62
2023-03-17T12:28:14.024Z,26.29
2023-03-17T12:30:52.469Z,25.92
2023-03-17T12:33:31.428Z,26.45
2023-03-17T12:36:02.802Z,26.56
2023-03-17T12:38:43.391Z,25.45
2023-03-17T12:41:40.506Z,24.85
2023-03-17T12:44:32.041Z,24.52
2023-03-17T12:47:46.739Z,24.48
2023-03-17T12:51:08.477Z,24.59
2023-03-17T12:53:44.877Z,24.14
2023-03-17T12:56:23.729Z,23.52
2023-03-17T12:58:56.189Z,23.70
2023-03-17T13:01:35.072Z,23.96
2023-03-17T13:04:18.967Z,23.77
2023-03-17T13:07:02.641Z,23.42
2023-03-17T13:09:53.248Z,23.22
2023-03-17T13:13:00.492Z,23.23
2023-03-17T13:15:58.920Z,23.39
2023-03-17T13:18:53.809Z,23.99
2023-03-17T13:21:30.805Z,24.96
2023-03-17T13:24:26.294Z,25.48
2023-03-17T13:27:02.068Z,25.55
2023-03-17T13:29:48.792Z,25.15
2023-03-17T13:32:38.282Z,24.18
2023-03-17T13:35:30.744Z,24.86
2023-03-17T13:38:40.332Z,24.61
2023-03-17T13:41:35.136Z,24.28
2023-03-17T13:44:29.165Z,23.97
2023-03-17T13:47:19.898Z,23.87
2023-03-17T13:49:53.018Z,23.71
2023-03-17T13:52:33.280Z,23.87
2023-03-17T13:55:33.005Z,23.14
2023-03-17T13:58:28.965Z,22.47
2023-03-17T14:01:09.832Z,22.16
2023-03-17T14:03:49.235Z,22.13
2023-03-17T14:06:23.101Z,21.76
2023-03-17T14:08:57.966Z,22.00
2023-03-17T14:11:35.587Z,22.39
2023-03-17T14:14:32.583Z,22.67
2023-03-17T14:17:15.050Z,22.77
2023-03-17T14:20:06.422Z,22.62
2023-03-17T14:22:45.263Z,22.49
2023-03-17T14:25:21.193Z,22.36
2023-03-17T14:27:56.374Z,23.64
2023-03-17T14:30:29.761Z,24.50
2023-03-17T14:33:08.383Z,23.78
2023-03-17T14:35:43.337Z,21.72
2023-03-17T14:38:23.013Z,20.40
2023-03-17T14:41:02.987Z,19.58
2023-03-17T14:43:34.560Z,18.86
2023-03-17T14:46:07.727Z,18.48
2023-03-17T14:48:44.693Z,18.19
2023-03-17T14:51:29.146Z,17.86
2023-03-17T14:54:04.472Z,17.34
2023-03-17T14:56:40.422Z,17.03
2023-03-17T14:59:21.901Z,16.79
2023-03-17T15:01:57.847Z,16.52
2023-03-17T15:04:35.538Z,16.42
2023-03-17T15:07:08.697Z,16.35
2023-03-17T15:09:43.506Z,15.94
2023-03-17T15:12:21.212Z,15.57
2023-03-17T15:14:56.451Z,15.38
2023-03-17T15:17:32.159Z,15.64
2023-03-17T15:20:09.207Z,15.71
2023-03-17T15:22:46.118Z,15.47
2023-03-17T15:25:29.288Z,15.43
2023-03-17T15:27:59.641Z,15.52
2023-03-17T15:30:44.282Z,15.65
2023-03-17T15:33:25.822Z,15.53
2023-03-17T15:36:00.248Z,15.64
2023-03-17T15:38:31.557Z,15.73
2023-03-17T15:41:02.120Z,15.76
2023-03-17T15:43:32.473Z,15.75
2023-03-17T15:46:07.105Z,15.54
2023-03-17T15:48:39.094Z,15.57
2023-03-17T15:51:13.973Z,15.58
2023-03-17T15:53:44.344Z,15.68
2023-03-17T15:56:20.770Z,15.50
2023-03-17T15:58:52.584Z,15.44
2023-03-17T16:01:26.506Z,15.31
2023-03-17T16:03:58.250Z,15.10
2023-03-17T16:06:31.460Z,14.87
2023-03-17T16:09:01.876Z,14.85
2023-03-17T16:11:34.601Z,14.68
2023-03-17T16:14:05.019Z,14.50
2023-03-17T16:16:40.901Z,14.43
2023-03-17T16:19:17.841Z,14.24
2023-03-17T16:21:50.909Z,14.19
2023-03-17T16:24:23.295Z,14.24
2023-03-17T16:26:53.781Z,14.38
2023-03-17T16:29:24.774Z,14.23
2023-03-17T16:31:54.961Z,14.05
2023-03-17T16:34:26.836Z,13.98
2023-03-17T16:36:59.886Z,14.01
2023-03-17T16:39:30.279Z,13.94
2023-03-17T16:42:00.796Z,13.81
2023-03-17T16:44:31.576Z,13.98
2023-03-17T16:47:02.125Z,14.04
2023-03-17T16:49:32.655Z,14.01
2023-03-17T16:52:05.820Z,13.87
2023-03-17T16:54:36.476Z,13.72
2023-03-17T16:57:08.115Z,13.71
2023-03-17T16:59:38.674Z,13.61
2023-03-17T17:02:18.621Z,13.47
2023-03-17T17:04:49.128Z,13.21
2023-03-17T17:07:22.272Z,13.20
2023-03-17T17:09:52.624Z,13.24
2023-03-17T17:12:22.974Z,13.13
2023-03-17T17:14:53.348Z,12.88
2023-03-17T17:17:23.844Z,12.88
2023-03-17T17:19:54.252Z,12.95
2023-03-17T17:22:27.333Z,12.97
2023-03-17T17:24:57.831Z,12.97
2023-03-17T17:27:28.286Z,12.93
2023-03-17T17:29:58.749Z,12.77
2023-03-17T17:32:29.477Z,12.72
2023-03-17T17:34:59.951Z,12.70
2023-03-17T17:37:33.365Z,12.71
2023-03-17T17:40:03.933Z,12.78
2023-03-17T17:42:34.601Z,12.81
2023-03-17T17:45:05.060Z,12.89
2023-03-17T17:47:35.705Z,12.89
2023-03-17T17:50:06.999Z,12.91
2023-03-17T17:52:40.244Z,12.93
2023-03-17T17:55:11.599Z,12.87
2023-03-17T17:57:42.022Z,12.83
2023-03-17T18:00:18.790Z,12.72
2023-03-17T18:02:49.259Z,12.67
2023-03-17T18:05:19.941Z,12.61
2023-03-17T18:07:53.258Z,12.56
2023-03-17T18:10:26.855Z,12.61
2023-03-17T18:12:57.612Z,12.52
2023-03-17T18:15:29.734Z,12.51
2023-03-17T18:18:00.139Z,12.40
2023-03-17T18:20:31.543Z,12.26
2023-03-17T18:23:04.826Z,12.37
2023-03-17T18:25:36.072Z,12.35
2023-03-17T18:28:06.591Z,12.34
2023-03-17T18:30:37.608Z,12.31
2023-03-17T18:33:12.298Z,12.24
2023-03-17T18:35:43.433Z,12.15
2023-03-17T18:38:16.643Z,12.19
2023-03-17T18:40:47.840Z,12.17
2023-03-17T18:43:18.213Z,12.22
2023-03-17T18:45:48.697Z,12.11
2023-03-17T18:48:19.469Z,12.07
2023-03-17T18:50:50.869Z,12.09
2023-03-17T18:53:23.879Z,11.98
2023-03-17T18:55:54.372Z,12.08
2023-03-17T18:58:24.780Z,12.12
2023-03-17T19:00:55.872Z,11.94
2023-03-17T19:03:26.758Z,11.94
2023-03-17T19:05:58.114Z,11.78
2023-03-17T19:08:31.256Z,11.88
2023-03-17T19:11:01.804Z,11.87
2023-03-17T19:13:34.650Z,11.89
2023-03-17T19:16:38.012Z,11.94
2023-03-17T19:19:42.934Z,11.89
2023-03-17T19:22:20.733Z,11.90
2023-03-17T19:24:57.654Z,11.91
2023-03-17T19:27:28.721Z,11.88
2023-03-17T19:30:08.366Z,11.84
2023-03-17T19:32:39.420Z,11.86
2023-03-17T19:35:23.266Z,11.79
2023-03-17T19:38:17.934Z,11.78
2023-03-17T19:40:54.912Z,11.72
2023-03-17T19:43:40.325Z,11.78
2023-03-17T19:46:21.462Z,11.82
2023-03-17T19:48:53.682Z,11.73
2023-03-17T19:51:26.081Z,11.75
2023-03-17T19:53:57.130Z,11.76
2023-03-17T19:56:30.333Z,11.73
2023-03-17T19:59:00.750Z,11.70
2023-03-17T20:01:32.260Z,11.74
2023-03-17T20:04:11.372Z,11.83
2023-03-17T20:06:58.223Z,11.80
2023-03-17T20:09:39.786Z,11.85
2023-03-17T20:12:16.232Z,11.92
2023-03-17T20:14:51.828Z,11.83
2023-03-17T20:17:22.560Z,11.84
2023-03-17T20:19:54.149Z,11.93
2023-03-17T20:22:27.330Z,11.92
2023-03-17T20:24:58.271Z,12.05
2023-03-17T20:27:32.309Z,11.97
2023-03-17T20:30:17.618Z,11.91
2023-03-17T20:32:49.747Z,11.86
2023-03-17T20:35:23.237Z,11.85
2023-03-17T20:37:57.034Z,11.82
2023-03-17T20:40:27.731Z,11.82
2023-03-17T20:43:01.094Z,11.81
2023-03-17T20:45:32.069Z,11.72
2023-03-17T20:48:03.594Z,11.72
2023-03-17T20:50:34.524Z,11.72
2023-03-17T20:53:05.126Z,11.69
2023-03-17T20:55:37.655Z,11.70
2023-03-17T20:58:11.753Z,11.75
2023-03-17T21:00:42.218Z,11.66
2023-03-17T21:03:12.890Z,11.66
2023-03-17T21:05:43.655Z,11.68
2023-03-17T21:08:14.332Z,11.67
2023-03-17T21:10:44.886Z,11.66
2023-03-17T21:13:18.204Z,11.60
2023-03-17T21:15:48.906Z,11.57
2023-03-17T21:18:19.553Z,11.50
2023-03-17T21:20:50.133Z,11.54
2023-03-17T21:23:20.575Z,11.47
2023-03-17T21:25:51.033Z,11.38
2023-03-17T21:28:24.247Z,11.37
2023-03-17T21:30:57.689Z,11.37
2023-03-17T21:33:28.033Z,11.39
2023-03-17T21:35:58.975Z,11.43
2023-03-17T21:38:31.210Z,11.34
2023-03-17T21:41:02.490Z,11.31
2023-03-17T21:43:35.522Z,11.27
2023-03-17T21:46:05.987Z,11.29
2023-03-17T21:48:37.642Z,11.32
2023-03-17T21:51:08.732Z,11.29
2023-03-17T21:53:38.801Z,11.32
2023-03-17T21:56:12.354Z,11.23
2023-03-17T21:58:46.148Z,11.19
2023-03-17T22:01:17.495Z,11.19
2023-03-17T22:03:48.077Z,11.20
2023-03-17T22:06:19.759Z,11.23
2023-03-17T22:08:51.900Z,11.18
2023-03-17T22:11:22.941Z,11.09
2023-03-17T22:13:55.945Z,11.01
2023-03-17T22:16:26.629Z,10.98
2023-03-17T22:18:57.327Z,11.01
2023-03-17T22:21:29.121Z,10.95
2023-03-17T22:24:02.424Z,10.96
2023-03-17T22:26:32.811Z,10.98
2023-03-17T22:29:07.854Z,10.90
2023-03-17T22:31:38.315Z,10.85
2023-03-17T22:34:10.063Z,10.84
2023-03-17T22:36:41.296Z,10.76
2023-03-17T22:39:12.781Z,10.77
2023-03-17T22:41:43.186Z,10.80
2023-03-17T22:44:16.185Z,10.81
2023-03-17T22:46:46.620Z,10.72
2023-03-17T22:49:17.104Z,10.63
2023-03-17T22:51:48.355Z,10.60
2023-03-17T22:54:18.834Z,10.58
2023-03-17T22:56:49.446Z,10.68
2023-03-17T22:59:22.525Z,10.72
2023-03-17T23:01:52.908Z,10.70
2023-03-17T23:04:23.333Z,10.71
2023-03-17T23:06:54.059Z,10.71
2023-03-17T23:09:24.705Z,10.66
2023-03-17T23:11:55.210Z,10.64
2023-03-17T23:14:28.422Z,10.62
2023-03-17T23:16:58.838Z,10.60
2023-03-17T23:19:31.930Z,10.61
2023-03-17T23:22:02.366Z,10.60
2023-03-17T23:24:33.493Z,10.52
2023-03-17T23:27:03.882Z,10.52
2023-03-17T23:29:36.856Z,10.55
2023-03-17T23:32:08.449Z,10.55
2023-03-17T23:34:39.748Z,10.54
2023-03-17T23:37:10.557Z,10.58
2023-03-17T23:39:41.444Z,10.62
2023-03-17T23:42:12.349Z,10.53
2023-03-17T23:44:45.485Z,10.57
2023-03-17T23:47:17.002Z,10.54
2023-03-17T23:49:47.377Z,10.56
2023-03-17T23:52:18.428Z,10.55
2023-03-17T23:54:48.533Z,10.41
2023-03-17T23:57:19.535Z,10.38
2023-03-17T23:59:52.488Z,10.31
